Puchberg, Austria
Current Conditions -  °F | °C
As of 4:20 PM on Friday 28 Nov 2014 (Local Time) from LOWW Reporting Station
Haze Haze  
Wind Chill: 26°   Ceiling: 300
Heat Index: 34°   Visibility: 1.4mi
Dew Point: 34°   Wind: 9mph
Humidity: 100%   Direction: 100°E
Pressure: 30.06"   Gusts: NA
Location:  47.78°N, 15.92°E
Report Text: LOWW 281420Z 10008KT 2300 BR FEW002 BKN003 01/01 Q1018 BECMG BKN002
Loading
Personal Weather Stations






























Interactive Weather Map New forecast layout! Learn more

10-Day Weather Forecast

Advertisements
Track Severe Weather on mobile